sensor_id;sensor_type;location;lat;lon;timestamp;P1;durP1;ratioP1;P2;durP2;ratioP2
14171;SDS011;7165;52.388;4.928;2023-02-15T00:02:02;56.00;;;46.77;;
14171;SDS011;7165;52.388;4.928;2023-02-15T00:04:29;51.53;;;43.80;;
14171;SDS011;7165;52.388;4.928;2023-02-15T00:07:11;56.97;;;46.33;;
14171;SDS011;7165;52.388;4.928;2023-02-15T00:09:41;56.33;;;47.00;;
14171;SDS011;7165;52.388;4.928;2023-02-15T00:12:08;59.03;;;48.20;;
14171;SDS011;7165;52.388;4.928;2023-02-15T00:14:37;61.50;;;50.37;;
14171;SDS011;7165;52.388;4.928;2023-02-15T00:17:03;59.80;;;48.43;;
14171;SDS011;7165;52.388;4.928;2023-02-15T00:19:30;60.63;;;48.83;;
14171;SDS011;7165;52.388;4.928;2023-02-15T00:21:57;65.53;;;50.43;;
14171;SDS011;7165;52.388;4.928;2023-02-15T00:24:26;63.43;;;49.67;;
14171;SDS011;7165;52.388;4.928;2023-02-15T00:26:53;57.20;;;48.13;;
14171;SDS011;7165;52.388;4.928;2023-02-15T00:29:20;59.63;;;48.43;;
14171;SDS011;7165;52.388;4.928;2023-02-15T00:31:47;61.73;;;49.90;;
14171;SDS011;7165;52.388;4.928;2023-02-15T00:34:17;66.80;;;53.07;;
14171;SDS011;7165;52.388;4.928;2023-02-15T00:36:45;63.63;;;51.07;;
14171;SDS011;7165;52.388;4.928;2023-02-15T00:39:13;69.37;;;54.27;;
14171;SDS011;7165;52.388;4.928;2023-02-15T00:41:41;70.67;;;55.13;;
14171;SDS011;7165;52.388;4.928;2023-02-15T00:44:08;70.90;;;56.07;;
14171;SDS011;7165;52.388;4.928;2023-02-15T00:46:35;69.57;;;55.43;;
14171;SDS011;7165;52.388;4.928;2023-02-15T00:49:02;67.40;;;54.90;;
14171;SDS011;7165;52.388;4.928;2023-02-15T00:51:30;61.93;;;51.30;;
14171;SDS011;7165;52.388;4.928;2023-02-15T00:53:57;63.87;;;52.67;;
14171;SDS011;7165;52.388;4.928;2023-02-15T00:56:24;65.23;;;52.53;;
14171;SDS011;7165;52.388;4.928;2023-02-15T00:58:54;57.83;;;49.83;;
14171;SDS011;7165;52.388;4.928;2023-02-15T01:01:22;58.77;;;49.47;;
14171;SDS011;7165;52.388;4.928;2023-02-15T01:03:50;58.87;;;48.30;;
14171;SDS011;7165;52.388;4.928;2023-02-15T01:06:17;59.37;;;51.13;;
14171;SDS011;7165;52.388;4.928;2023-02-15T01:08:45;57.93;;;47.77;;
14171;SDS011;7165;52.388;4.928;2023-02-15T01:11:14;58.93;;;47.97;;
14171;SDS011;7165;52.388;4.928;2023-02-15T01:13:46;62.20;;;48.57;;
14171;SDS011;7165;52.388;4.928;2023-02-15T01:16:15;62.00;;;49.40;;
14171;SDS011;7165;52.388;4.928;2023-02-15T01:18:42;58.90;;;47.03;;
14171;SDS011;7165;52.388;4.928;2023-02-15T01:21:10;58.20;;;46.13;;
14171;SDS011;7165;52.388;4.928;2023-02-15T01:23:39;62.97;;;49.10;;
14171;SDS011;7165;52.388;4.928;2023-02-15T01:26:06;58.03;;;49.30;;
14171;SDS011;7165;52.388;4.928;2023-02-15T01:28:33;58.20;;;46.37;;
14171;SDS011;7165;52.388;4.928;2023-02-15T01:31:03;57.77;;;47.47;;
14171;SDS011;7165;52.388;4.928;2023-02-15T01:33:32;59.73;;;47.87;;
14171;SDS011;7165;52.388;4.928;2023-02-15T01:36:00;61.37;;;48.03;;
14171;SDS011;7165;52.388;4.928;2023-02-15T01:38:27;58.57;;;46.30;;
14171;SDS011;7165;52.388;4.928;2023-02-15T01:40:55;57.60;;;44.60;;
14171;SDS011;7165;52.388;4.928;2023-02-15T01:43:43;55.53;;;45.90;;
14171;SDS011;7165;52.388;4.928;2023-02-15T01:46:11;52.63;;;43.70;;
14171;SDS011;7165;52.388;4.928;2023-02-15T01:48:42;52.20;;;44.07;;
14171;SDS011;7165;52.388;4.928;2023-02-15T01:51:12;55.43;;;43.23;;
14171;SDS011;7165;52.388;4.928;2023-02-15T01:53:43;54.93;;;44.27;;
14171;SDS011;7165;52.388;4.928;2023-02-15T01:56:15;49.83;;;41.30;;
14171;SDS011;7165;52.388;4.928;2023-02-15T01:58:44;56.00;;;40.87;;
14171;SDS011;7165;52.388;4.928;2023-02-15T02:01:14;52.00;;;41.00;;
14171;SDS011;7165;52.388;4.928;2023-02-15T02:03:49;48.17;;;39.90;;
14171;SDS011;7165;52.388;4.928;2023-02-15T02:06:22;47.47;;;38.27;;
14171;SDS011;7165;52.388;4.928;2023-02-15T02:08:50;44.63;;;39.23;;
14171;SDS011;7165;52.388;4.928;2023-02-15T02:11:18;44.73;;;39.87;;
14171;SDS011;7165;52.388;4.928;2023-02-15T02:13:45;46.63;;;39.03;;
14171;SDS011;7165;52.388;4.928;2023-02-15T02:16:14;48.50;;;39.57;;
14171;SDS011;7165;52.388;4.928;2023-02-15T02:18:47;44.47;;;37.70;;
14171;SDS011;7165;52.388;4.928;2023-02-15T02:24:26;47.10;;;37.20;;
14171;SDS011;7165;52.388;4.928;2023-02-15T02:27:17;41.20;;;35.73;;
14171;SDS011;7165;52.388;4.928;2023-02-15T02:30:04;44.37;;;37.83;;
14171;SDS011;7165;52.388;4.928;2023-02-15T02:32:53;43.10;;;35.60;;
14171;SDS011;7165;52.388;4.928;2023-02-15T02:35:44;43.57;;;36.13;;
14171;SDS011;7165;52.388;4.928;2023-02-15T02:38:20;39.60;;;34.83;;
14171;SDS011;7165;52.388;4.928;2023-02-15T02:40:55;40.43;;;35.97;;
14171;SDS011;7165;52.388;4.928;2023-02-15T02:43:29;44.27;;;35.07;;
14171;SDS011;7165;52.388;4.928;2023-02-15T02:46:02;41.90;;;37.13;;
14171;SDS011;7165;52.388;4.928;2023-02-15T02:48:37;41.73;;;34.73;;
14171;SDS011;7165;52.388;4.928;2023-02-15T02:51:04;39.33;;;34.97;;
14171;SDS011;7165;52.388;4.928;2023-02-15T02:53:31;39.90;;;34.47;;
14171;SDS011;7165;52.388;4.928;2023-02-15T02:56:01;45.27;;;35.43;;
14171;SDS011;7165;52.388;4.928;2023-02-15T02:58:33;44.90;;;37.20;;
14171;SDS011;7165;52.388;4.928;2023-02-15T03:01:05;44.60;;;37.47;;
14171;SDS011;7165;52.388;4.928;2023-02-15T03:03:38;46.37;;;37.20;;
14171;SDS011;7165;52.388;4.928;2023-02-15T03:06:11;41.27;;;34.70;;
14171;SDS011;7165;52.388;4.928;2023-02-15T03:08:43;37.00;;;32.97;;
14171;SDS011;7165;52.388;4.928;2023-02-15T03:11:14;40.57;;;35.47;;
14171;SDS011;7165;52.388;4.928;2023-02-15T03:13:42;41.53;;;35.97;;
14171;SDS011;7165;52.388;4.928;2023-02-15T03:16:11;40.60;;;33.47;;
14171;SDS011;7165;52.388;4.928;2023-02-15T03:18:57;37.00;;;32.60;;
14171;SDS011;7165;52.388;4.928;2023-02-15T03:21:30;39.53;;;34.23;;
14171;SDS011;7165;52.388;4.928;2023-02-15T03:24:01;41.23;;;33.40;;
14171;SDS011;7165;52.388;4.928;2023-02-15T03:26:33;38.93;;;32.33;;
14171;SDS011;7165;52.388;4.928;2023-02-15T03:29:02;42.93;;;36.17;;
14171;SDS011;7165;52.388;4.928;2023-02-15T03:31:32;40.97;;;33.00;;
14171;SDS011;7165;52.388;4.928;2023-02-15T03:34:05;38.67;;;32.00;;
14171;SDS011;7165;52.388;4.928;2023-02-15T03:36:36;37.63;;;33.17;;
14171;SDS011;7165;52.388;4.928;2023-02-15T03:39:09;40.90;;;33.03;;
14171;SDS011;7165;52.388;4.928;2023-02-15T03:41:45;39.37;;;32.07;;
14171;SDS011;7165;52.388;4.928;2023-02-15T03:44:15;37.57;;;31.70;;
14171;SDS011;7165;52.388;4.928;2023-02-15T03:46:46;39.10;;;33.23;;
14171;SDS011;7165;52.388;4.928;2023-02-15T03:49:21;38.17;;;32.90;;
14171;SDS011;7165;52.388;4.928;2023-02-15T03:51:51;41.27;;;32.97;;
14171;SDS011;7165;52.388;4.928;2023-02-15T03:54:21;41.07;;;34.23;;
14171;SDS011;7165;52.388;4.928;2023-02-15T03:57:09;38.87;;;32.97;;
14171;SDS011;7165;52.388;4.928;2023-02-15T03:59:55;40.60;;;33.70;;
14171;SDS011;7165;52.388;4.928;2023-02-15T04:02:41;38.67;;;32.97;;
14171;SDS011;7165;52.388;4.928;2023-02-15T04:05:15;41.07;;;34.10;;
14171;SDS011;7165;52.388;4.928;2023-02-15T04:07:42;41.83;;;35.00;;
14171;SDS011;7165;52.388;4.928;2023-02-15T04:10:09;43.23;;;36.00;;
14171;SDS011;7165;52.388;4.928;2023-02-15T04:12:53;49.33;;;36.83;;
14171;SDS011;7165;52.388;4.928;2023-02-15T04:15:20;46.97;;;35.33;;
14171;SDS011;7165;52.388;4.928;2023-02-15T04:18:04;47.27;;;37.33;;
14171;SDS011;7165;52.388;4.928;2023-02-15T04:20:32;47.00;;;37.40;;
14171;SDS011;7165;52.388;4.928;2023-02-15T04:23:17;44.47;;;36.60;;
14171;SDS011;7165;52.388;4.928;2023-02-15T04:26:02;43.60;;;35.10;;
14171;SDS011;7165;52.388;4.928;2023-02-15T04:28:29;43.93;;;35.77;;
14171;SDS011;7165;52.388;4.928;2023-02-15T04:30:56;45.30;;;35.63;;
14171;SDS011;7165;52.388;4.928;2023-02-15T04:33:23;43.03;;;35.20;;
14171;SDS011;7165;52.388;4.928;2023-02-15T04:35:52;45.70;;;35.77;;
14171;SDS011;7165;52.388;4.928;2023-02-15T04:38:18;45.07;;;34.10;;
14171;SDS011;7165;52.388;4.928;2023-02-15T04:40:49;45.20;;;36.33;;
14171;SDS011;7165;52.388;4.928;2023-02-15T04:43:17;48.43;;;40.50;;
14171;SDS011;7165;52.388;4.928;2023-02-15T04:45:47;52.73;;;39.40;;
14171;SDS011;7165;52.388;4.928;2023-02-15T04:48:14;51.60;;;41.13;;
14171;SDS011;7165;52.388;4.928;2023-02-15T04:50:41;48.17;;;38.57;;
14171;SDS011;7165;52.388;4.928;2023-02-15T04:53:09;51.77;;;41.60;;
14171;SDS011;7165;52.388;4.928;2023-02-15T04:55:37;50.07;;;41.17;;
14171;SDS011;7165;52.388;4.928;2023-02-15T04:58:04;52.87;;;41.30;;
14171;SDS011;7165;52.388;4.928;2023-02-15T05:00:30;47.77;;;39.47;;
14171;SDS011;7165;52.388;4.928;2023-02-15T05:02:57;43.20;;;36.27;;
14171;SDS011;7165;52.388;4.928;2023-02-15T05:05:24;46.90;;;39.73;;
14171;SDS011;7165;52.388;4.928;2023-02-15T05:07:51;45.33;;;36.93;;
14171;SDS011;7165;52.388;4.928;2023-02-15T05:10:19;46.40;;;38.10;;
14171;SDS011;7165;52.388;4.928;2023-02-15T05:12:46;46.13;;;38.83;;
14171;SDS011;7165;52.388;4.928;2023-02-15T05:15:12;50.53;;;37.97;;
14171;SDS011;7165;52.388;4.928;2023-02-15T05:17:39;42.73;;;38.00;;
14171;SDS011;7165;52.388;4.928;2023-02-15T05:20:06;44.37;;;37.10;;
14171;SDS011;7165;52.388;4.928;2023-02-15T05:22:33;41.37;;;35.13;;
14171;SDS011;7165;52.388;4.928;2023-02-15T05:25:00;41.73;;;36.43;;
14171;SDS011;7165;52.388;4.928;2023-02-15T05:27:46;44.00;;;34.47;;
14171;SDS011;7165;52.388;4.928;2023-02-15T05:30:30;47.00;;;37.80;;
14171;SDS011;7165;52.388;4.928;2023-02-15T05:32:57;50.40;;;38.10;;
14171;SDS011;7165;52.388;4.928;2023-02-15T05:35:24;47.47;;;36.07;;
14171;SDS011;7165;52.388;4.928;2023-02-15T05:37:50;44.30;;;37.07;;
14171;SDS011;7165;52.388;4.928;2023-02-15T05:40:17;51.10;;;39.70;;
14171;SDS011;7165;52.388;4.928;2023-02-15T05:42:45;48.80;;;37.60;;
14171;SDS011;7165;52.388;4.928;2023-02-15T05:45:12;46.83;;;39.40;;
14171;SDS011;7165;52.388;4.928;2023-02-15T05:47:40;44.27;;;37.13;;
14171;SDS011;7165;52.388;4.928;2023-02-15T05:50:07;46.60;;;37.27;;
14171;SDS011;7165;52.388;4.928;2023-02-15T05:52:35;51.60;;;43.33;;
14171;SDS011;7165;52.388;4.928;2023-02-15T05:55:01;47.93;;;40.97;;
14171;SDS011;7165;52.388;4.928;2023-02-15T05:57:29;44.27;;;37.80;;
14171;SDS011;7165;52.388;4.928;2023-02-15T05:59:58;47.27;;;38.00;;
14171;SDS011;7165;52.388;4.928;2023-02-15T06:02:24;47.70;;;36.47;;
14171;SDS011;7165;52.388;4.928;2023-02-15T06:04:51;42.17;;;34.60;;
14171;SDS011;7165;52.388;4.928;2023-02-15T06:07:18;42.67;;;34.73;;
14171;SDS011;7165;52.388;4.928;2023-02-15T06:09:45;45.73;;;35.03;;
14171;SDS011;7165;52.388;4.928;2023-02-15T06:12:11;45.13;;;36.83;;
14171;SDS011;7165;52.388;4.928;2023-02-15T06:14:38;44.47;;;35.93;;
14171;SDS011;7165;52.388;4.928;2023-02-15T06:17:06;48.47;;;37.10;;
14171;SDS011;7165;52.388;4.928;2023-02-15T06:19:33;45.13;;;36.00;;
14171;SDS011;7165;52.388;4.928;2023-02-15T06:22:00;49.50;;;37.07;;
14171;SDS011;7165;52.388;4.928;2023-02-15T06:24:27;46.10;;;37.17;;
14171;SDS011;7165;52.388;4.928;2023-02-15T06:26:53;47.00;;;37.47;;
14171;SDS011;7165;52.388;4.928;2023-02-15T06:29:20;51.03;;;39.73;;
14171;SDS011;7165;52.388;4.928;2023-02-15T06:31:47;46.47;;;38.47;;
14171;SDS011;7165;52.388;4.928;2023-02-15T06:34:15;47.30;;;38.67;;
14171;SDS011;7165;52.388;4.928;2023-02-15T06:36:42;44.00;;;34.33;;
14171;SDS011;7165;52.388;4.928;2023-02-15T06:39:09;47.50;;;37.27;;
14171;SDS011;7165;52.388;4.928;2023-02-15T06:41:36;43.63;;;38.87;;
14171;SDS011;7165;52.388;4.928;2023-02-15T06:44:02;48.93;;;37.63;;
14171;SDS011;7165;52.388;4.928;2023-02-15T06:46:30;47.57;;;38.03;;
14171;SDS011;7165;52.388;4.928;2023-02-15T06:48:57;49.00;;;37.03;;
14171;SDS011;7165;52.388;4.928;2023-02-15T06:51:25;45.93;;;37.17;;
14171;SDS011;7165;52.388;4.928;2023-02-15T06:53:52;42.27;;;35.73;;
14171;SDS011;7165;52.388;4.928;2023-02-15T06:56:18;46.53;;;35.97;;
14171;SDS011;7165;52.388;4.928;2023-02-15T06:58:45;50.93;;;37.70;;
14171;SDS011;7165;52.388;4.928;2023-02-15T07:01:14;44.80;;;38.13;;
14171;SDS011;7165;52.388;4.928;2023-02-15T07:03:41;45.63;;;37.47;;
14171;SDS011;7165;52.388;4.928;2023-02-15T07:06:08;40.73;;;34.97;;
14171;SDS011;7165;52.388;4.928;2023-02-15T07:08:37;49.50;;;37.23;;
14171;SDS011;7165;52.388;4.928;2023-02-15T07:11:05;46.63;;;37.27;;
14171;SDS011;7165;52.388;4.928;2023-02-15T07:13:49;44.60;;;36.67;;
14171;SDS011;7165;52.388;4.928;2023-02-15T07:16:17;45.83;;;35.80;;
14171;SDS011;7165;52.388;4.928;2023-02-15T07:18:44;46.47;;;35.83;;
14171;SDS011;7165;52.388;4.928;2023-02-15T07:21:11;48.30;;;36.30;;
14171;SDS011;7165;52.388;4.928;2023-02-15T07:23:39;39.47;;;34.20;;
14171;SDS011;7165;52.388;4.928;2023-02-15T07:26:06;48.20;;;36.43;;
14171;SDS011;7165;52.388;4.928;2023-02-15T07:28:34;46.93;;;36.13;;
14171;SDS011;7165;52.388;4.928;2023-02-15T07:31:01;47.17;;;37.37;;
14171;SDS011;7165;52.388;4.928;2023-02-15T07:33:29;43.03;;;34.97;;
14171;SDS011;7165;52.388;4.928;2023-02-15T07:35:56;44.07;;;37.23;;
14171;SDS011;7165;52.388;4.928;2023-02-15T07:38:25;51.40;;;39.80;;
14171;SDS011;7165;52.388;4.928;2023-02-15T07:40:58;45.60;;;37.03;;
14171;SDS011;7165;52.388;4.928;2023-02-15T07:43:25;46.57;;;36.93;;
14171;SDS011;7165;52.388;4.928;2023-02-15T07:45:52;46.13;;;38.30;;
14171;SDS011;7165;52.388;4.928;2023-02-15T07:48:18;45.87;;;37.50;;
14171;SDS011;7165;52.388;4.928;2023-02-15T07:50:45;48.47;;;37.23;;
14171;SDS011;7165;52.388;4.928;2023-02-15T07:53:12;44.73;;;37.43;;
14171;SDS011;7165;52.388;4.928;2023-02-15T07:55:38;46.40;;;37.57;;
14171;SDS011;7165;52.388;4.928;2023-02-15T07:58:06;51.43;;;37.50;;
14171;SDS011;7165;52.388;4.928;2023-02-15T08:00:33;45.90;;;37.90;;
14171;SDS011;7165;52.388;4.928;2023-02-15T08:03:22;46.80;;;36.10;;
14171;SDS011;7165;52.388;4.928;2023-02-15T08:05:51;47.40;;;38.33;;
14171;SDS011;7165;52.388;4.928;2023-02-15T08:08:22;49.40;;;40.33;;
14171;SDS011;7165;52.388;4.928;2023-02-15T08:10:58;46.30;;;37.47;;
14171;SDS011;7165;52.388;4.928;2023-02-15T08:17:06;50.07;;;38.70;;
14171;SDS011;7165;52.388;4.928;2023-02-15T08:19:33;48.60;;;40.20;;
14171;SDS011;7165;52.388;4.928;2023-02-15T08:22:01;48.57;;;39.13;;
14171;SDS011;7165;52.388;4.928;2023-02-15T08:24:29;50.57;;;39.23;;
14171;SDS011;7165;52.388;4.928;2023-02-15T08:26:57;47.70;;;39.30;;
14171;SDS011;7165;52.388;4.928;2023-02-15T08:29:25;48.83;;;40.23;;
14171;SDS011;7165;52.388;4.928;2023-02-15T08:31:54;51.83;;;38.90;;
14171;SDS011;7165;52.388;4.928;2023-02-15T08:34:24;47.50;;;39.90;;
14171;SDS011;7165;52.388;4.928;2023-02-15T08:36:51;46.83;;;38.90;;
14171;SDS011;7165;52.388;4.928;2023-02-15T08:39:18;44.50;;;39.07;;
14171;SDS011;7165;52.388;4.928;2023-02-15T08:41:45;46.83;;;39.40;;
14171;SDS011;7165;52.388;4.928;2023-02-15T08:46:41;46.73;;;38.93;;
14171;SDS011;7165;52.388;4.928;2023-02-15T08:49:09;50.03;;;40.87;;
14171;SDS011;7165;52.388;4.928;2023-02-15T08:51:40;47.27;;;40.53;;
14171;SDS011;7165;52.388;4.928;2023-02-15T08:54:08;50.43;;;40.40;;
14171;SDS011;7165;52.388;4.928;2023-02-15T08:56:36;46.47;;;39.47;;
14171;SDS011;7165;52.388;4.928;2023-02-15T08:59:04;51.60;;;40.23;;
14171;SDS011;7165;52.388;4.928;2023-02-15T09:01:33;50.43;;;41.87;;
14171;SDS011;7165;52.388;4.928;2023-02-15T09:04:01;48.83;;;40.67;;
14171;SDS011;7165;52.388;4.928;2023-02-15T09:06:30;52.30;;;44.70;;
14171;SDS011;7165;52.388;4.928;2023-02-15T09:08:59;48.00;;;40.70;;
14171;SDS011;7165;52.388;4.928;2023-02-15T09:11:26;52.67;;;42.87;;
14171;SDS011;7165;52.388;4.928;2023-02-15T09:13:55;48.57;;;41.30;;
14171;SDS011;7165;52.388;4.928;2023-02-15T09:16:24;49.30;;;40.07;;
14171;SDS011;7165;52.388;4.928;2023-02-15T09:18:52;49.03;;;41.30;;
14171;SDS011;7165;52.388;4.928;2023-02-15T09:21:20;51.27;;;41.43;;
14171;SDS011;7165;52.388;4.928;2023-02-15T09:23:49;46.87;;;40.07;;
14171;SDS011;7165;52.388;4.928;2023-02-15T09:26:18;48.50;;;40.77;;
14171;SDS011;7165;52.388;4.928;2023-02-15T09:28:46;50.30;;;41.27;;
14171;SDS011;7165;52.388;4.928;2023-02-15T09:31:15;44.37;;;38.17;;
14171;SDS011;7165;52.388;4.928;2023-02-15T09:33:43;49.60;;;40.13;;
14171;SDS011;7165;52.388;4.928;2023-02-15T09:36:15;48.07;;;39.27;;
14171;SDS011;7165;52.388;4.928;2023-02-15T09:38:44;45.30;;;38.13;;
14171;SDS011;7165;52.388;4.928;2023-02-15T09:41:26;46.80;;;39.37;;
14171;SDS011;7165;52.388;4.928;2023-02-15T09:44:06;48.87;;;40.13;;
14171;SDS011;7165;52.388;4.928;2023-02-15T09:46:47;43.77;;;38.87;;
14171;SDS011;7165;52.388;4.928;2023-02-15T09:49:27;44.87;;;39.80;;
14171;SDS011;7165;52.388;4.928;2023-02-15T09:52:12;50.80;;;38.67;;
14171;SDS011;7165;52.388;4.928;2023-02-15T09:54:52;44.87;;;39.63;;
14171;SDS011;7165;52.388;4.928;2023-02-15T09:57:32;47.77;;;39.93;;
14171;SDS011;7165;52.388;4.928;2023-02-15T10:00:07;46.13;;;38.73;;
14171;SDS011;7165;52.388;4.928;2023-02-15T10:02:49;47.73;;;40.50;;
14171;SDS011;7165;52.388;4.928;2023-02-15T10:05:32;48.63;;;40.13;;
14171;SDS011;7165;52.388;4.928;2023-02-15T10:08:13;47.43;;;39.67;;
14171;SDS011;7165;52.388;4.928;2023-02-15T10:11:00;46.10;;;38.13;;
14171;SDS011;7165;52.388;4.928;2023-02-15T10:14:01;50.07;;;41.27;;
14171;SDS011;7165;52.388;4.928;2023-02-15T10:16:37;43.87;;;38.93;;
14171;SDS011;7165;52.388;4.928;2023-02-15T10:19:10;43.85;;;38.20;;
14171;SDS011;7165;52.388;4.928;2023-02-15T10:21:47;45.60;;;37.70;;
14171;SDS011;7165;52.388;4.928;2023-02-15T10:24:36;51.30;;;40.05;;
14171;SDS011;7165;52.388;4.928;2023-02-15T10:27:13;42.97;;;38.17;;
14171;SDS011;7165;52.388;4.928;2023-02-15T10:29:47;48.87;;;41.53;;
14171;SDS011;7165;52.388;4.928;2023-02-15T10:32:22;57.40;;;43.33;;
14171;SDS011;7165;52.388;4.928;2023-02-15T10:34:51;50.10;;;40.67;;
14171;SDS011;7165;52.388;4.928;2023-02-15T10:37:29;46.53;;;40.35;;
14171;SDS011;7165;52.388;4.928;2023-02-15T10:40:06;46.75;;;39.88;;
14171;SDS011;7165;52.388;4.928;2023-02-15T10:42:40;48.63;;;42.88;;
14171;SDS011;7165;52.388;4.928;2023-02-15T10:45:20;48.78;;;41.25;;
14171;SDS011;7165;52.388;4.928;2023-02-15T10:47:58;46.75;;;39.80;;
14171;SDS011;7165;52.388;4.928;2023-02-15T10:50:43;47.45;;;39.85;;
14171;SDS011;7165;52.388;4.928;2023-02-15T10:53:20;48.83;;;38.90;;
14171;SDS011;7165;52.388;4.928;2023-02-15T10:56:07;49.63;;;42.30;;
14171;SDS011;7165;52.388;4.928;2023-02-15T10:58:57;47.83;;;38.25;;
14171;SDS011;7165;52.388;4.928;2023-02-15T11:01:50;46.92;;;39.85;;
14171;SDS011;7165;52.388;4.928;2023-02-15T11:07:16;43.55;;;38.60;;
14171;SDS011;7165;52.388;4.928;2023-02-15T11:09:47;45.72;;;37.58;;
14171;SDS011;7165;52.388;4.928;2023-02-15T11:12:18;48.63;;;35.35;;
14171;SDS011;7165;52.388;4.928;2023-02-15T11:14:49;43.65;;;35.92;;
14171;SDS011;7165;52.388;4.928;2023-02-15T11:17:22;43.65;;;35.15;;
14171;SDS011;7165;52.388;4.928;2023-02-15T11:19:55;47.58;;;38.25;;
14171;SDS011;7165;52.388;4.928;2023-02-15T11:22:27;42.47;;;35.20;;
14171;SDS011;7165;52.388;4.928;2023-02-15T11:24:56;45.92;;;37.47;;
14171;SDS011;7165;52.388;4.928;2023-02-15T11:27:25;38.53;;;34.33;;
14171;SDS011;7165;52.388;4.928;2023-02-15T11:29:57;42.47;;;34.78;;
14171;SDS011;7165;52.388;4.928;2023-02-15T11:32:29;42.88;;;36.75;;
14171;SDS011;7165;52.388;4.928;2023-02-15T11:34:59;41.63;;;36.90;;
14171;SDS011;7165;52.388;4.928;2023-02-15T11:37:32;40.40;;;35.22;;
14171;SDS011;7165;52.388;4.928;2023-02-15T11:40:03;40.42;;;35.10;;
14171;SDS011;7165;52.388;4.928;2023-02-15T11:42:43;41.22;;;34.90;;
14171;SDS011;7165;52.388;4.928;2023-02-15T11:45:16;43.03;;;36.20;;
14171;SDS011;7165;52.388;4.928;2023-02-15T11:47:49;39.10;;;34.85;;
14171;SDS011;7165;52.388;4.928;2023-02-15T11:50:19;45.10;;;36.08;;
14171;SDS011;7165;52.388;4.928;2023-02-15T11:52:48;40.22;;;35.88;;
14171;SDS011;7165;52.388;4.928;2023-02-15T11:55:18;43.50;;;36.40;;
14171;SDS011;7165;52.388;4.928;2023-02-15T11:57:47;38.10;;;33.33;;
14171;SDS011;7165;52.388;4.928;2023-02-15T12:00:20;40.85;;;35.33;;
14171;SDS011;7165;52.388;4.928;2023-02-15T12:02:57;44.63;;;35.58;;
14171;SDS011;7165;52.388;4.928;2023-02-15T12:05:24;43.33;;;36.45;;
14171;SDS011;7165;52.388;4.928;2023-02-15T12:07:52;42.03;;;37.63;;
14171;SDS011;7165;52.388;4.928;2023-02-15T12:10:22;40.88;;;35.70;;
14171;SDS011;7165;52.388;4.928;2023-02-15T12:12:56;44.55;;;37.92;;
14171;SDS011;7165;52.388;4.928;2023-02-15T12:15:35;39.00;;;34.80;;
14171;SDS011;7165;52.388;4.928;2023-02-15T12:18:04;45.90;;;37.95;;
14171;SDS011;7165;52.388;4.928;2023-02-15T12:20:42;42.20;;;37.22;;
14171;SDS011;7165;52.388;4.928;2023-02-15T12:23:11;41.20;;;36.90;;
14171;SDS011;7165;52.388;4.928;2023-02-15T12:25:40;41.28;;;36.63;;
14171;SDS011;7165;52.388;4.928;2023-02-15T12:28:16;45.05;;;37.92;;
14171;SDS011;7165;52.388;4.928;2023-02-15T12:30:49;44.80;;;39.08;;
14171;SDS011;7165;52.388;4.928;2023-02-15T12:33:22;41.95;;;37.35;;
14171;SDS011;7165;52.388;4.928;2023-02-15T12:35:55;41.97;;;37.50;;
14171;SDS011;7165;52.388;4.928;2023-02-15T12:38:25;42.55;;;37.58;;
14171;SDS011;7165;52.388;4.928;2023-02-15T12:40:57;43.30;;;38.38;;
14171;SDS011;7165;52.388;4.928;2023-02-15T12:43:25;43.58;;;38.85;;
14171;SDS011;7165;52.388;4.928;2023-02-15T12:45:53;45.50;;;39.25;;
14171;SDS011;7165;52.388;4.928;2023-02-15T12:48:42;42.80;;;37.80;;
14171;SDS011;7165;52.388;4.928;2023-02-15T12:51:08;45.28;;;40.22;;
14171;SDS011;7165;52.388;4.928;2023-02-15T12:53:39;42.92;;;38.25;;
14171;SDS011;7165;52.388;4.928;2023-02-15T12:56:07;44.45;;;39.10;;
14171;SDS011;7165;52.388;4.928;2023-02-15T12:58:36;41.75;;;37.30;;
14171;SDS011;7165;52.388;4.928;2023-02-15T13:01:08;42.47;;;37.83;;
14171;SDS011;7165;52.388;4.928;2023-02-15T13:03:38;40.90;;;35.88;;
14171;SDS011;7165;52.388;4.928;2023-02-15T13:06:18;45.78;;;38.00;;
14171;SDS011;7165;52.388;4.928;2023-02-15T13:08:46;43.15;;;36.25;;
14171;SDS011;7165;52.388;4.928;2023-02-15T13:16:16;46.38;;;38.05;;
14171;SDS011;7165;52.388;4.928;2023-02-15T13:18:50;44.15;;;39.42;;
14171;SDS011;7165;52.388;4.928;2023-02-15T13:23:48;42.22;;;37.70;;
14171;SDS011;7165;52.388;4.928;2023-02-15T13:26:19;43.15;;;38.20;;
14171;SDS011;7165;52.388;4.928;2023-02-15T13:28:49;40.67;;;36.28;;
14171;SDS011;7165;52.388;4.928;2023-02-15T13:31:19;41.13;;;36.50;;
14171;SDS011;7165;52.388;4.928;2023-02-15T13:33:49;44.17;;;39.25;;
14171;SDS011;7165;52.388;4.928;2023-02-15T13:36:22;41.08;;;36.70;;
14171;SDS011;7165;52.388;4.928;2023-02-15T13:38:58;43.05;;;37.60;;
14171;SDS011;7165;52.388;4.928;2023-02-15T13:41:33;44.05;;;39.13;;
14171;SDS011;7165;52.388;4.928;2023-02-15T13:44:10;52.88;;;39.90;;
14171;SDS011;7165;52.388;4.928;2023-02-15T13:46:48;44.50;;;39.20;;
14171;SDS011;7165;52.388;4.928;2023-02-15T13:49:28;43.92;;;36.83;;
14171;SDS011;7165;52.388;4.928;2023-02-15T13:52:17;44.75;;;38.60;;
14171;SDS011;7165;52.388;4.928;2023-02-15T13:54:49;41.67;;;37.38;;
14171;SDS011;7165;52.388;4.928;2023-02-15T13:57:43;44.35;;;38.17;;
14171;SDS011;7165;52.388;4.928;2023-02-15T14:00:22;48.70;;;41.25;;
14171;SDS011;7165;52.388;4.928;2023-02-15T14:03:04;46.92;;;41.83;;
14171;SDS011;7165;52.388;4.928;2023-02-15T14:05:46;49.20;;;43.45;;
14171;SDS011;7165;52.388;4.928;2023-02-15T14:08:21;47.55;;;42.45;;
14171;SDS011;7165;52.388;4.928;2023-02-15T14:11:01;50.38;;;42.30;;
14171;SDS011;7165;52.388;4.928;2023-02-15T14:16:28;46.92;;;41.78;;
14171;SDS011;7165;52.388;4.928;2023-02-15T14:19:01;49.97;;;42.70;;
14171;SDS011;7165;52.388;4.928;2023-02-15T14:21:38;50.55;;;44.90;;
14171;SDS011;7165;52.388;4.928;2023-02-15T14:24:21;48.05;;;42.63;;
14171;SDS011;7165;52.388;4.928;2023-02-15T14:26:57;46.28;;;41.22;;
14171;SDS011;7165;52.388;4.928;2023-02-15T14:29:35;47.95;;;42.25;;
14171;SDS011;7165;52.388;4.928;2023-02-15T14:32:14;48.78;;;43.47;;
14171;SDS011;7165;52.388;4.928;2023-02-15T14:34:46;50.28;;;43.30;;
14171;SDS011;7165;52.388;4.928;2023-02-15T14:37:17;52.97;;;44.55;;
14171;SDS011;7165;52.388;4.928;2023-02-15T14:39:50;48.28;;;40.00;;
14171;SDS011;7165;52.388;4.928;2023-02-15T14:42:42;46.80;;;41.60;;
14171;SDS011;7165;52.388;4.928;2023-02-15T14:45:19;51.55;;;42.80;;
14171;SDS011;7165;52.388;4.928;2023-02-15T14:47:52;50.35;;;42.65;;
14171;SDS011;7165;52.388;4.928;2023-02-15T14:50:41;48.17;;;42.43;;
14171;SDS011;7165;52.388;4.928;2023-02-15T14:53:24;48.28;;;40.97;;
14171;SDS011;7165;52.388;4.928;2023-02-15T14:56:18;45.45;;;40.50;;
14171;SDS011;7165;52.388;4.928;2023-02-15T14:58:57;45.75;;;40.78;;
14171;SDS011;7165;52.388;4.928;2023-02-15T15:01:39;45.33;;;40.03;;
14171;SDS011;7165;52.388;4.928;2023-02-15T15:04:07;45.72;;;40.65;;
14171;SDS011;7165;52.388;4.928;2023-02-15T15:06:39;47.22;;;41.13;;
14171;SDS011;7165;52.388;4.928;2023-02-15T15:09:12;47.72;;;41.72;;
14171;SDS011;7165;52.388;4.928;2023-02-15T15:11:47;48.15;;;41.10;;
14171;SDS011;7165;52.388;4.928;2023-02-15T15:17:04;45.95;;;38.97;;
14171;SDS011;7165;52.388;4.928;2023-02-15T15:22:23;46.35;;;39.95;;
14171;SDS011;7165;52.388;4.928;2023-02-15T15:24:52;43.28;;;38.58;;
14171;SDS011;7165;52.388;4.928;2023-02-15T15:27:39;43.28;;;38.70;;
14171;SDS011;7165;52.388;4.928;2023-02-15T15:42:48;44.10;;;36.67;;